Time;durP1;ratioP1;P1;durP2;ratioP2;P2;SDS_P1;SDS_P2;PMS_P1;PMS_P2;Temp;Humidity;BMP_temperature;BMP_pressure;BME280_temperature;BME280_humidity;BME280_pressure;Samples;Min_cycle;Max_cycle;Signal;HPM_P1;HPM_P2
2022/08/02 00:00:42;;;;;;;4.43;2.33;;;14.20;99.90;;;;;;5055774;28;20511;-75
2022/08/02 00:03:07;;;;;;;4.90;2.70;;;14.20;99.90;;;;;;5039783;28;20033;-76
2022/08/02 00:05:33;;;;;;;5.68;2.67;;;14.20;99.90;;;;;;5031359;28;20036;-75
2022/08/02 00:07:58;;;;;;;8.23;2.70;;;14.10;99.90;;;;;;5037699;28;20522;-75
2022/08/02 00:10:24;;;;;;;8.02;2.90;;;14.10;99.90;;;;;;5039845;28;20108;-76
2022/08/02 00:12:50;;;;;;;4.82;2.58;;;14.10;99.90;;;;;;5039259;28;20037;-76
2022/08/02 00:15:15;;;;;;;6.03;2.80;;;14.10;99.90;;;;;;5037752;28;20478;-75
2022/08/02 00:17:41;;;;;;;8.88;3.25;;;14.10;99.90;;;;;;5037779;28;20041;-74
2022/08/02 00:20:07;;;;;;;8.50;2.97;;;14.10;99.90;;;;;;5034259;28;20041;-74
2022/08/02 00:22:33;;;;;;;6.95;3.03;;;14.10;99.90;;;;;;5038864;28;20040;-75
2022/08/02 00:24:58;;;;;;;5.75;2.90;;;14.00;99.90;;;;;;5036183;28;20128;-75
2022/08/02 00:27:24;;;;;;;9.07;2.88;;;14.00;99.90;;;;;;5035455;28;20041;-75
2022/08/02 00:29:50;;;;;;;6.05;2.80;;;14.00;99.90;;;;;;5037032;28;20420;-74
2022/08/02 00:32:16;;;;;;;7.70;3.20;;;13.90;99.90;;;;;;5034077;28;20045;-74
2022/08/02 00:34:42;;;;;;;9.05;3.33;;;14.00;99.90;;;;;;5033364;28;20043;-75
2022/08/02 00:37:07;;;;;;;6.18;2.58;;;14.00;99.90;;;;;;5033979;28;20453;-75
2022/08/02 00:39:33;;;;;;;7.90;3.35;;;13.90;99.90;;;;;;5034368;28;20518;-74
2022/08/02 00:41:58;;;;;;;5.60;3.10;;;13.90;99.90;;;;;;5040252;28;20444;-75
2022/08/02 00:44:24;;;;;;;7.72;2.92;;;13.90;99.90;;;;;;5060736;28;20403;-75
2022/08/02 00:46:49;;;;;;;6.32;2.90;;;13.90;99.90;;;;;;5035994;28;20033;-76
2022/08/02 00:49:15;;;;;;;8.38;2.97;;;13.80;99.90;;;;;;5036721;28;20032;-75
2022/08/02 00:51:41;;;;;;;6.60;3.03;;;13.70;99.90;;;;;;5038826;28;20052;-75
2022/08/02 00:54:07;;;;;;;6.43;2.80;;;13.70;99.90;;;;;;5032776;28;20161;-75
2022/08/02 00:56:34;;;;;;;8.32;2.60;;;13.70;99.90;;;;;;5036305;28;20094;-75
2022/08/02 00:59:00;;;;;;;5.88;2.85;;;13.70;99.90;;;;;;5033462;28;20087;-75
2022/08/02 01:01:37;;;;;;;8.27;3.00;;;13.70;99.90;;;;;;5042211;28;20044;-75
2022/08/02 01:04:05;;;;;;;7.07;2.88;;;13.60;99.90;;;;;;5033674;28;20032;-75
2022/08/02 01:06:32;;;;;;;5.22;2.63;;;13.50;99.90;;;;;;5035037;28;20537;-74
2022/08/02 01:08:59;;;;;;;6.60;2.78;;;13.50;99.90;;;;;;5038597;28;20037;-75
2022/08/02 01:11:24;;;;;;;6.32;2.50;;;13.60;99.90;;;;;;5033220;28;20548;-75
2022/08/02 01:13:50;;;;;;;6.55;2.70;;;13.40;99.90;;;;;;5035659;28;20037;-75
2022/08/02 01:16:22;;;;;;;8.25;2.97;;;13.40;99.90;;;;;;5039371;28;20048;-75
2022/08/02 01:18:54;;;;;;;7.53;3.00;;;13.40;99.90;;;;;;5032860;28;20489;-74
2022/08/02 01:21:25;;;;;;;6.45;2.60;;;13.40;99.90;;;;;;5037500;28;20499;-75
2022/08/02 01:24:01;;;;;;;6.28;2.80;;;13.40;99.90;;;;;;5055615;28;20406;-75
2022/08/02 01:26:51;;;;;;;6.47;2.70;;;13.30;99.90;;;;;;5037292;28;20491;-74
2022/08/02 01:29:29;;;;;;;7.20;2.80;;;13.30;99.90;;;;;;5032078;28;20419;-75
2022/08/02 01:32:32;;;;;;;8.23;3.10;;;13.30;99.90;;;;;;5033858;28;20446;-75
2022/08/02 01:35:08;;;;;;;7.63;2.75;;;13.40;99.90;;;;;;5036093;28;20447;-75
2022/08/02 01:37:43;;;;;;;9.30;3.13;;;13.30;99.90;;;;;;5035126;28;20044;-75
2022/08/02 01:40:12;;;;;;;5.97;2.90;;;13.30;99.90;;;;;;5031631;28;20128;-75
2022/08/02 01:42:46;;;;;;;6.13;2.75;;;13.30;99.90;;;;;;5031157;28;20041;-75
2022/08/02 01:45:13;;;;;;;6.97;2.63;;;13.30;99.90;;;;;;5031066;28;20047;-75
2022/08/02 01:47:41;;;;;;;6.43;3.30;;;13.40;99.90;;;;;;5037249;28;20067;-75
2022/08/02 01:50:11;;;;;;;10.43;3.28;;;13.30;99.90;;;;;;5035642;28;20040;-75
2022/08/02 01:52:42;;;;;;;12.00;3.50;;;13.30;99.90;;;;;;5022773;28;20045;-75
2022/08/02 01:55:17;;;;;;;8.77;3.35;;;13.30;99.90;;;;;;5028256;28;20052;-75
2022/08/02 01:57:49;;;;;;;8.60;2.95;;;13.20;99.90;;;;;;5034443;28;20057;-74
2022/08/02 02:00:17;;;;;;;7.20;3.25;;;13.20;99.90;;;;;;5037516;28;20075;-75
2022/08/02 02:02:46;;;;;;;7.82;3.13;;;13.20;99.90;;;;;;5038577;28;20485;-75
2022/08/02 02:05:14;;;;;;;4.80;2.60;;;13.20;99.90;;;;;;5053860;28;20089;-75
2022/08/02 02:07:42;;;;;;;8.85;3.13;;;13.20;99.90;;;;;;5036902;28;20040;-75
2022/08/02 02:10:10;;;;;;;5.95;2.80;;;13.10;99.90;;;;;;5030127;28;20120;-75
2022/08/02 02:12:38;;;;;;;6.90;3.03;;;13.10;99.90;;;;;;5018619;28;20174;-75
2022/08/02 02:15:08;;;;;;;9.50;3.20;;;13.10;99.90;;;;;;5034581;28;20044;-75
2022/08/02 02:17:34;;;;;;;7.03;3.20;;;13.10;99.90;;;;;;5035786;28;20150;-75
2022/08/02 02:20:01;;;;;;;8.60;3.00;;;13.10;99.90;;;;;;5052144;28;20514;-75
2022/08/02 02:22:27;;;;;;;9.27;3.22;;;13.10;99.90;;;;;;5035227;28;20033;-75
2022/08/02 02:24:52;;;;;;;7.25;2.90;;;13.10;99.90;;;;;;5035976;28;20036;-74
2022/08/02 02:27:19;;;;;;;5.53;2.67;;;13.10;99.90;;;;;;5037195;28;20144;-75
2022/08/02 02:29:49;;;;;;;9.02;2.70;;;13.10;99.90;;;;;;5042625;28;20029;-74
2022/08/02 02:32:16;;;;;;;5.18;2.97;;;13.10;99.90;;;;;;5036031;28;20039;-75
2022/08/02 02:34:45;;;;;;;7.60;2.85;;;13.10;99.90;;;;;;5038470;28;20041;-73
2022/08/02 02:37:19;;;;;;;8.82;3.25;;;13.00;99.90;;;;;;5041897;28;20206;-74
2022/08/02 02:39:47;;;;;;;9.00;3.05;;;13.00;99.90;;;;;;5040765;28;20041;-75
2022/08/02 02:42:15;;;;;;;9.95;2.95;;;13.00;99.90;;;;;;5037457;28;20037;-75
2022/08/02 02:44:43;;;;;;;8.40;2.95;;;13.00;99.90;;;;;;5021259;28;20103;-75
2022/08/02 02:47:10;;;;;;;10.30;3.17;;;13.00;99.90;;;;;;5040492;28;20036;-75
2022/08/02 02:49:37;;;;;;;8.32;3.00;;;13.00;99.90;;;;;;5039377;28;20047;-75
2022/08/02 02:52:05;;;;;;;10.23;2.90;;;13.00;99.90;;;;;;5043850;28;20037;-75
2022/08/02 02:54:32;;;;;;;10.43;3.20;;;13.00;99.90;;;;;;5035862;28;20042;-75
2022/08/02 02:56:59;;;;;;;5.53;3.00;;;13.00;99.90;;;;;;5025380;28;20116;-74
2022/08/02 02:59:26;;;;;;;8.77;2.90;;;12.90;99.90;;;;;;5057348;28;20037;-74
2022/08/02 03:01:53;;;;;;;7.25;3.15;;;12.90;99.90;;;;;;5037996;28;20045;-74
2022/08/02 03:04:19;;;;;;;10.50;3.33;;;12.90;99.90;;;;;;5041770;28;20112;-75
2022/08/02 03:06:45;;;;;;;10.02;3.30;;;12.90;99.90;;;;;;5039957;28;20091;-75
2022/08/02 03:09:11;;;;;;;9.10;3.25;;;12.90;99.90;;;;;;5037135;28;20041;-74
2022/08/02 03:11:37;;;;;;;6.85;3.28;;;12.90;99.90;;;;;;5041508;28;20091;-74
2022/08/02 03:14:07;;;;;;;10.35;3.30;;;13.00;99.90;;;;;;5021992;28;20555;-75
2022/08/02 03:16:33;;;;;;;6.53;3.17;;;13.00;99.90;;;;;;5024848;28;20411;-75
2022/08/02 03:19:02;;;;;;;7.82;3.30;;;12.90;99.90;;;;;;5039527;28;20043;-75
2022/08/02 03:21:28;;;;;;;7.45;2.92;;;12.90;99.90;;;;;;5024072;28;20399;-75
2022/08/02 03:23:53;;;;;;;6.43;2.90;;;13.00;99.90;;;;;;5055300;28;20033;-74
2022/08/02 03:26:20;;;;;;;9.43;3.10;;;12.90;99.90;;;;;;5038907;28;20032;-75
2022/08/02 03:28:45;;;;;;;9.45;3.28;;;12.90;99.90;;;;;;5034563;28;20113;-74
2022/08/02 03:31:11;;;;;;;8.82;3.30;;;13.00;99.90;;;;;;5042766;28;20164;-75
2022/08/02 03:33:37;;;;;;;7.22;2.92;;;12.90;99.90;;;;;;5036124;28;20070;-74
2022/08/02 03:36:09;;;;;;;10.95;3.53;;;12.90;99.90;;;;;;5029846;28;20038;-75
2022/08/02 03:38:36;;;;;;;10.40;3.55;;;12.90;99.90;;;;;;5035257;28;20116;-74
2022/08/02 03:41:04;;;;;;;7.88;3.60;;;12.80;99.90;;;;;;5038396;28;20041;-74
2022/08/02 03:43:30;;;;;;;9.00;3.40;;;12.80;99.90;;;;;;5041192;28;20497;-75
2022/08/02 03:45:57;;;;;;;9.82;3.30;;;12.90;99.90;;;;;;5042177;28;20114;-74
2022/08/02 03:48:25;;;;;;;11.48;4.53;;;12.90;99.90;;;;;;5036330;28;20044;-74
2022/08/02 03:50:51;;;;;;;9.25;3.78;;;12.90;99.90;;;;;;5038102;28;20053;-75
2022/08/02 03:53:18;;;;;;;8.35;3.90;;;12.80;99.90;;;;;;5039955;28;20048;-74
2022/08/02 03:55:44;;;;;;;8.20;3.88;;;12.80;99.90;;;;;;5018360;28;20053;-74
2022/08/02 03:58:19;;;;;;;12.95;4.20;;;12.90;99.90;;;;;;5038623;28;20048;-74
2022/08/02 04:00:45;;;;;;;7.95;3.97;;;12.90;99.90;;;;;;5039493;28;20037;-75
2022/08/02 04:03:11;;;;;;;8.13;3.60;;;12.90;99.90;;;;;;5035580;28;20419;-74
2022/08/02 04:05:36;;;;;;;10.00;4.10;;;12.90;99.90;;;;;;5058783;28;20029;-74
2022/08/02 04:08:02;;;;;;;6.35;3.83;;;12.90;99.90;;;;;;5035168;28;20033;-74
2022/08/02 04:10:27;;;;;;;10.43;3.65;;;12.90;99.90;;;;;;5033730;28;20059;-74
2022/08/02 04:12:54;;;;;;;8.77;3.90;;;12.90;99.90;;;;;;5035990;28;20399;-74
2022/08/02 04:15:21;;;;;;;7.97;4.18;;;12.80;99.90;;;;;;5036182;28;20029;-74
2022/08/02 04:17:55;;;;;;;9.15;4.45;;;12.90;99.90;;;;;;5034881;28;20044;-74
2022/08/02 04:20:23;;;;;;;;;;;12.90;99.90;;;;;;5042935;28;20862;-74
2022/08/02 04:22:56;;;;;;;8.20;4.07;;;12.90;99.90;;;;;;5057905;28;19948;-75
2022/08/02 04:25:23;;;;;;;9.88;4.00;;;12.90;99.90;;;;;;5033053;28;20523;-74
2022/08/02 04:27:50;;;;;;;6.40;3.90;;;12.90;99.90;;;;;;5037320;28;20044;-74
2022/08/02 04:30:16;;;;;;;8.07;3.88;;;12.90;99.90;;;;;;5038130;28;20067;-75
2022/08/02 04:32:44;;;;;;;10.00;4.40;;;12.90;99.90;;;;;;5034844;28;20041;-75
2022/08/02 04:35:09;;;;;;;9.90;4.35;;;13.00;99.90;;;;;;5033348;28;20041;-75
2022/08/02 04:37:37;;;;;;;9.05;4.50;;;13.00;99.90;;;;;;5037272;28;20041;-74
2022/08/02 04:40:08;;;;;;;12.52;3.92;;;13.00;99.90;;;;;;5037481;28;20049;-75
2022/08/02 04:42:34;;;;;;;12.10;4.55;;;13.00;99.90;;;;;;5014204;28;20042;-75
2022/08/02 04:45:00;;;;;;;9.80;4.60;;;13.00;99.90;;;;;;5019685;28;20079;-74
2022/08/02 04:47:26;;;;;;;9.40;4.68;;;13.10;99.90;;;;;;5033720;28;20044;-74
2022/08/02 04:49:51;;;;;;;15.32;4.47;;;13.10;99.90;;;;;;5033664;28;20036;-74
2022/08/02 04:52:17;;;;;;;10.32;4.35;;;13.20;99.90;;;;;;5033078;28;20041;-74
2022/08/02 04:54:42;;;;;;;8.63;4.38;;;13.20;99.90;;;;;;5017867;28;20037;-74
2022/08/02 04:59:52;;;;;;;;;;;13.40;99.90;;;;;;5033135;28;20041;-74
2022/08/02 05:02:17;;;;;;;9.13;4.55;;;13.50;99.90;;;;;;5037596;28;20390;-74
2022/08/02 05:04:43;;;;;;;8.73;4.30;;;13.60;99.90;;;;;;5030000;28;20068;-74
2022/08/02 05:07:08;;;;;;;8.80;3.90;;;13.60;99.90;;;;;;5037462;28;20033;-74
2022/08/02 05:09:34;;;;;;;9.15;4.55;;;13.60;99.90;;;;;;5036433;28;20471;-74
2022/08/02 05:11:59;;;;;;;7.93;4.55;;;13.70;99.90;;;;;;5031888;28;20522;-74
2022/08/02 05:14:25;;;;;;;10.68;4.75;;;13.80;99.90;;;;;;5032883;28;20171;-74
2022/08/02 05:16:50;;;;;;;11.77;4.40;;;13.90;99.90;;;;;;5036707;28;20132;-74
2022/08/02 05:19:16;;;;;;;8.55;4.65;;;14.00;99.90;;;;;;5031053;28;20032;-75
2022/08/02 05:21:41;;;;;;;9.63;4.13;;;14.10;99.90;;;;;;5038201;28;20033;-74
2022/08/02 05:24:08;;;;;;;8.80;4.50;;;14.20;99.90;;;;;;5033851;28;20033;-74
2022/08/02 05:26:33;;;;;;;9.65;4.15;;;14.20;99.90;;;;;;5032622;28;20052;-74
2022/08/02 05:28:59;;;;;;;9.93;4.40;;;14.30;99.90;;;;;;5033816;28;20045;-74
2022/08/02 05:31:24;;;;;;;8.32;4.22;;;14.50;99.90;;;;;;5035566;28;20063;-74
2022/08/02 05:33:50;;;;;;;10.32;4.32;;;14.70;99.90;;;;;;5019077;28;20063;-74
2022/08/02 05:36:16;;;;;;;9.88;4.43;;;14.70;99.90;;;;;;5036968;28;20037;-74
2022/08/02 05:38:41;;;;;;;10.57;4.40;;;14.80;99.90;;;;;;5035952;28;20499;-74
2022/08/02 05:41:07;;;;;;;9.70;4.05;;;14.90;99.90;;;;;;5036699;28;20041;-74
2022/08/02 05:43:32;;;;;;;10.45;4.10;;;14.90;99.90;;;;;;5037982;28;20041;-74
2022/08/02 05:45:58;;;;;;;11.95;3.85;;;15.00;99.90;;;;;;5031823;28;20053;-74
2022/08/02 05:48:24;;;;;;;7.90;3.60;;;15.10;99.90;;;;;;5039728;28;20438;-74
2022/08/02 05:51:01;;;;;;;10.18;3.78;;;15.20;99.90;;;;;;5032087;28;20037;-73
2022/08/02 05:53:39;;;;;;;9.98;4.00;;;15.30;99.90;;;;;;5035020;28;20041;-74
2022/08/02 05:56:28;;;;;;;9.10;4.00;;;15.40;99.90;;;;;;5033027;28;20123;-73
2022/08/02 05:59:03;;;;;;;5.65;3.33;;;15.50;99.90;;;;;;5055634;28;20068;-73
2022/08/02 06:01:38;;;;;;;8.35;3.83;;;15.60;99.90;;;;;;5059984;28;20045;-74
2022/08/02 06:04:09;;;;;;;8.25;3.88;;;15.70;99.90;;;;;;5056395;28;20064;-74
2022/08/02 06:06:36;;;;;;;7.63;3.70;;;15.90;99.90;;;;;;5044128;28;20033;-74
2022/08/02 06:09:09;;;;;;;9.30;3.45;;;15.90;99.90;;;;;;5039869;28;20123;-74
2022/08/02 06:11:38;;;;;;;10.98;3.28;;;16.00;99.90;;;;;;5032846;28;20064;-74
2022/08/02 06:14:05;;;;;;;9.38;3.35;;;16.20;99.90;;;;;;5037602;28;20069;-74
2022/08/02 06:16:32;;;;;;;7.95;3.22;;;16.20;99.90;;;;;;5038251;28;20077;-74
2022/08/02 06:18:59;;;;;;;6.05;3.05;;;16.30;99.90;;;;;;5042355;28;20160;-74
2022/08/02 06:21:26;;;;;;;8.75;3.22;;;16.40;99.90;;;;;;5027596;28;20046;-74
2022/08/02 06:23:52;;;;;;;8.60;3.42;;;16.40;99.90;;;;;;5046929;28;20044;-74
2022/08/02 06:26:17;;;;;;;7.15;3.42;;;16.60;99.90;;;;;;5026900;28;20034;-74
2022/08/02 06:28:44;;;;;;;7.90;3.00;;;16.70;99.90;;;;;;5077147;28;20037;-74
2022/08/02 06:31:13;;;;;;;6.43;2.92;;;16.90;99.90;;;;;;5041635;28;20068;-74
2022/08/02 06:33:39;;;;;;;12.23;3.80;;;17.00;99.90;;;;;;5041924;28;20045;-74
2022/08/02 06:36:22;;;;;;;9.60;2.90;;;17.20;99.90;;;;;;5023132;28;20492;-74
2022/08/02 06:38:54;;;;;;;11.77;2.95;;;17.20;99.90;;;;;;5013155;28;20133;-74
2022/08/02 06:41:23;;;;;;;6.60;3.05;;;17.20;99.90;;;;;;5020326;28;20041;-74
2022/08/02 06:44:00;;;;;;;8.35;3.25;;;17.30;99.90;;;;;;5034210;28;20079;-75
2022/08/02 06:46:26;;;;;;;8.50;2.63;;;17.40;99.90;;;;;;5037903;28;20639;-74
2022/08/02 06:48:52;;;;;;;7.65;3.00;;;17.50;99.90;;;;;;5040619;28;20506;-74
2022/08/02 06:51:18;;;;;;;6.20;2.92;;;17.60;99.90;;;;;;5038465;28;20116;-73
2022/08/02 06:53:44;;;;;;;6.72;2.70;;;17.60;99.90;;;;;;5041990;28;20140;-73
2022/08/02 06:56:10;;;;;;;7.78;2.85;;;17.80;99.90;;;;;;5045249;28;20479;-74
2022/08/02 06:58:36;;;;;;;7.28;2.67;;;17.90;99.90;;;;;;5024283;28;20045;-73
2022/08/02 07:01:05;;;;;;;7.70;2.60;;;18.10;99.90;;;;;;5040180;28;20041;-74
2022/08/02 07:03:35;;;;;;;7.05;2.70;;;18.30;99.90;;;;;;5043222;28;20041;-74
2022/08/02 07:06:02;;;;;;;6.28;2.88;;;18.30;99.90;;;;;;5041669;28;20407;-74
2022/08/02 07:08:35;;;;;;;5.50;2.65;;;18.40;99.90;;;;;;5039375;28;20052;-73
2022/08/02 07:11:01;;;;;;;5.00;2.10;;;18.60;99.90;;;;;;5019406;28;20109;-74
2022/08/02 07:13:27;;;;;;;8.18;2.70;;;18.60;99.90;;;;;;5039996;28;20040;-73
2022/08/02 07:15:54;;;;;;;7.38;2.53;;;18.70;99.90;;;;;;5066605;28;20033;-74
2022/08/02 07:18:21;;;;;;;4.75;2.55;;;18.70;99.90;;;;;;5045225;28;20045;-73
2022/08/02 07:20:46;;;;;;;7.32;2.25;;;18.60;99.90;;;;;;5031667;28;20049;-74
2022/08/02 07:23:13;;;;;;;7.93;2.60;;;18.50;99.90;;;;;;5031833;28;20042;-73
2022/08/02 07:25:39;;;;;;;10.02;2.63;;;18.50;99.90;;;;;;5064292;28;20037;-73
2022/08/02 07:28:08;;;;;;;10.20;3.38;;;18.60;99.90;;;;;;5031655;28;20041;-74
2022/08/02 07:30:33;;;;;;;6.40;2.10;;;18.70;99.90;;;;;;5032007;28;20586;-74
2022/08/02 07:32:59;;;;;;;5.60;2.10;;;18.80;99.90;;;;;;5064738;28;20124;-73
2022/08/02 07:35:24;;;;;;;5.85;2.63;;;19.00;99.90;;;;;;5030760;28;20033;-73
2022/08/02 07:37:50;;;;;;;4.93;2.10;;;19.20;99.90;;;;;;5031519;28;20045;-74
2022/08/02 07:40:16;;;;;;;6.68;2.03;;;19.30;99.90;;;;;;5032652;28;20044;-74
2022/08/02 07:42:42;;;;;;;7.55;2.38;;;19.40;99.90;;;;;;5031203;28;20041;-73
2022/08/02 07:45:09;;;;;;;4.57;1.73;;;19.70;99.90;;;;;;5063993;28;20037;-74
2022/08/02 07:47:42;;;;;;;6.95;1.90;;;19.80;99.90;;;;;;5031129;28;20547;-74
2022/08/02 07:50:10;;;;;;;7.43;1.77;;;19.90;99.90;;;;;;5031313;28;20041;-74
2022/08/02 07:52:36;;;;;;;4.93;2.00;;;20.00;99.90;;;;;;5030957;28;20038;-74
2022/08/02 07:55:02;;;;;;;4.15;1.75;;;20.20;99.90;;;;;;5030477;28;20041;-73
2022/08/02 07:57:27;;;;;;;4.38;1.45;;;20.30;99.90;;;;;;5031271;28;20038;-74
2022/08/02 07:59:53;;;;;;;4.28;1.50;;;20.50;99.90;;;;;;5031186;28;20044;-74
2022/08/02 08:02:19;;;;;;;5.38;1.52;;;20.70;99.90;;;;;;5064278;28;20047;-74
2022/08/02 08:04:44;;;;;;;5.45;1.30;;;20.90;99.90;;;;;;5030195;28;20538;-73
2022/08/02 08:07:10;;;;;;;4.95;1.38;;;20.90;99.90;;;;;;5030841;28;20044;-73
2022/08/02 08:09:40;;;;;;;5.72;1.40;;;20.90;99.90;;;;;;5030727;28;20042;-73
2022/08/02 08:12:08;;;;;;;2.03;1.10;;;21.00;99.90;;;;;;5029347;28;20037;-74
2022/08/02 08:14:33;;;;;;;3.28;1.30;;;20.90;99.90;;;;;;5029852;28;20073;-74
2022/08/02 08:16:59;;;;;;;3.42;1.20;;;21.00;99.90;;;;;;5029187;28;20091;-73
2022/08/02 08:19:25;;;;;;;3.53;1.10;;;21.10;99.90;;;;;;5030720;28;20522;-73
2022/08/02 08:21:51;;;;;;;2.63;1.02;;;21.10;99.90;;;;;;5030707;28;20420;-73
2022/08/02 08:24:16;;;;;;;4.55;0.90;;;21.20;99.30;;;;;;5029262;28;20103;-73
2022/08/02 08:26:42;;;;;;;3.95;1.08;;;21.20;98.50;;;;;;5031894;28;20041;-75
2022/08/02 08:29:08;;;;;;;2.03;1.02;;;21.20;98.40;;;;;;5030550;28;20084;-73
2022/08/02 08:31:33;;;;;;;3.50;0.98;;;21.30;98.20;;;;;;5030498;28;20482;-74
2022/08/02 08:34:00;;;;;;;4.18;1.10;;;21.20;97.70;;;;;;5029539;28;20495;-73
2022/08/02 08:36:25;;;;;;;3.05;1.25;;;21.40;98.10;;;;;;5030648;28;20076;-73
2022/08/02 08:38:51;;;;;;;3.58;0.90;;;21.60;98.30;;;;;;5063686;28;20100;-73
2022/08/02 08:41:18;;;;;;;2.20;1.10;;;21.70;98.40;;;;;;5028500;28;20187;-73
2022/08/02 08:43:44;;;;;;;4.07;1.33;;;21.80;98.60;;;;;;5029757;28;20034;-73
2022/08/02 08:46:16;;;;;;;3.42;1.33;;;21.90;98.30;;;;;;5028848;28;20033;-73
2022/08/02 08:48:47;;;;;;;3.72;1.00;;;22.00;98.30;;;;;;5029061;28;20108;-73
2022/08/02 08:51:20;;;;;;;3.58;1.40;;;22.20;98.60;;;;;;5030084;28;20045;-73
2022/08/02 08:53:48;;;;;;;3.50;1.00;;;22.30;98.20;;;;;;5028615;28;20045;-73
2022/08/02 08:56:14;;;;;;;2.90;1.30;;;22.30;98.20;;;;;;5029365;28;20041;-73
2022/08/02 08:58:41;;;;;;;2.25;0.90;;;22.40;97.90;;;;;;5030115;28;20052;-73
2022/08/02 09:01:08;;;;;;;3.40;1.20;;;22.40;97.60;;;;;;5030037;28;20065;-73
2022/08/02 09:03:33;;;;;;;3.33;1.13;;;22.50;97.50;;;;;;5030346;28;20396;-74
2022/08/02 09:05:59;;;;;;;3.55;1.13;;;22.50;96.90;;;;;;5029619;28;20044;-73
2022/08/02 09:08:25;;;;;;;2.83;1.02;;;22.60;96.80;;;;;;5030028;28;20051;-74
2022/08/02 09:10:51;;;;;;;2.53;1.00;;;22.60;96.40;;;;;;5029438;28;20037;-73
2022/08/02 09:13:19;;;;;;;3.38;1.38;;;22.70;97.10;;;;;;5029935;28;20049;-73
2022/08/02 09:16:02;;;;;;;3.45;1.25;;;22.70;96.10;;;;;;5029558;28;20091;-73
2022/08/02 09:18:30;;;;;;;3.75;1.08;;;22.80;97.00;;;;;;5029796;28;20041;-74
2022/08/02 09:20:58;;;;;;;5.57;1.30;;;22.80;96.50;;;;;;5063160;28;20399;-74
2022/08/02 09:23:25;;;;;;;2.95;1.25;;;22.90;96.20;;;;;;5063235;28;20042;-74
2022/08/02 09:25:59;;;;;;;5.38;1.30;;;23.00;96.00;;;;;;5029040;28;20044;-74
2022/08/02 09:28:29;;;;;;;1.80;1.00;;;23.10;96.20;;;;;;5029654;28;20107;-73
2022/08/02 09:31:12;;;;;;;3.47;1.20;;;23.20;95.80;;;;;;5029901;28;20372;-74
2022/08/02 09:33:40;;;;;;;3.53;1.10;;;23.30;95.30;;;;;;5049331;28;20041;-73
2022/08/02 09:36:11;;;;;;;2.67;1.20;;;23.40;96.00;;;;;;5085390;28;20785;-74
2022/08/02 09:38:38;;;;;;;2.03;1.10;;;23.50;95.40;;;;;;5077874;28;20033;-74
2022/08/02 09:41:05;;;;;;;2.38;1.23;;;23.60;95.70;;;;;;5027880;28;20491;-74
2022/08/02 09:43:40;;;;;;;3.03;1.40;;;23.70;95.20;;;;;;5030130;28;20049;-74
2022/08/02 09:46:17;;;;;;;2.70;1.40;;;23.70;95.00;;;;;;5025489;28;20040;-74
2022/08/02 09:48:54;;;;;;;3.13;1.15;;;23.90;95.70;;;;;;5044459;28;21790;-73
2022/08/02 09:51:25;;;;;;;5.45;1.23;;;23.90;95.90;;;;;;5061479;28;20046;-75
2022/08/02 09:53:56;;;;;;;3.28;1.45;;;23.90;95.70;;;;;;5037671;28;20052;-74
2022/08/02 09:56:24;;;;;;;2.83;1.55;;;23.90;95.60;;;;;;5043422;28;20099;-74
2022/08/02 09:58:52;;;;;;;3.50;1.40;;;23.90;96.20;;;;;;5032885;28;20046;-74
2022/08/02 10:01:20;;;;;;;3.45;1.67;;;24.00;96.50;;;;;;5032857;28;20041;-75
2022/08/02 10:03:57;;;;;;;3.35;1.30;;;24.20;96.80;;;;;;5033085;28;20514;-74
2022/08/02 10:06:23;;;;;;;4.07;1.70;;;24.40;97.00;;;;;;5065613;28;20077;-74
2022/08/02 10:08:52;;;;;;;3.72;1.63;;;24.60;97.30;;;;;;5033232;28;20049;-74
2022/08/02 10:11:19;;;;;;;4.45;1.77;;;24.70;96.90;;;;;;5016655;28;20088;-75
2022/08/02 10:13:45;;;;;;;4.93;1.77;;;24.80;97.00;;;;;;5032320;28;20041;-74
2022/08/02 10:16:11;;;;;;;4.57;1.60;;;24.80;96.80;;;;;;5065758;28;20084;-75
2022/08/02 10:18:36;;;;;;;5.07;1.90;;;24.80;96.60;;;;;;5032848;28;20061;-75
2022/08/02 10:21:08;;;;;;;5.35;1.77;;;24.70;96.60;;;;;;5034198;28;20600;-75
2022/08/02 10:23:37;;;;;;;5.28;1.95;;;24.70;97.10;;;;;;5033208;28;20044;-74
2022/08/02 10:26:03;;;;;;;4.45;1.73;;;24.70;97.40;;;;;;5033622;28;20037;-74
2022/08/02 10:28:31;;;;;;;3.97;1.80;;;25.00;97.70;;;;;;5032676;28;20043;-75
2022/08/02 10:31:00;;;;;;;4.97;2.38;;;25.20;98.00;;;;;;5032746;28;20049;-74
2022/08/02 10:33:27;;;;;;;4.00;1.95;;;25.30;98.10;;;;;;5065187;28;20045;-74
2022/08/02 10:35:58;;;;;;;4.20;2.13;;;25.50;98.20;;;;;;5031159;28;20073;-74
2022/08/02 10:38:25;;;;;;;5.68;2.03;;;25.60;98.40;;;;;;5032361;28;20049;-74
2022/08/02 10:40:53;;;;;;;8.25;2.50;;;25.80;98.30;;;;;;5031944;28;20499;-74
2022/08/02 10:43:40;;;;;;;6.60;2.28;;;26.00;98.30;;;;;;5050698;28;20041;-75
2022/08/02 10:46:25;;;;;;;4.65;2.30;;;26.00;97.30;;;;;;5031323;28;20096;-75
2022/08/02 10:49:06;;;;;;;6.68;2.78;;;26.10;98.00;;;;;;5031809;28;20507;-75
2022/08/02 10:52:00;;;;;;;6.10;2.80;;;26.10;97.80;;;;;;5015531;28;20087;-75
2022/08/02 10:54:40;;;;;;;6.15;2.60;;;26.20;97.80;;;;;;5015085;28;20707;-75
2022/08/02 10:57:20;;;;;;;3.65;2.40;;;26.40;97.50;;;;;;5032256;28;20084;-74
2022/08/02 10:59:46;;;;;;;5.78;2.17;;;26.50;98.00;;;;;;5029610;28;20092;-74
2022/08/02 11:02:12;;;;;;;4.75;2.22;;;26.60;97.10;;;;;;5058649;28;20120;-74
2022/08/02 11:04:41;;;;;;;5.05;1.92;;;26.60;97.40;;;;;;5063840;28;20139;-74
2022/08/02 11:07:16;;;;;;;3.97;2.03;;;26.60;96.90;;;;;;5055149;28;20461;-74
2022/08/02 11:09:49;;;;;;;4.13;2.10;;;26.60;97.00;;;;;;5040708;28;20055;-74
2022/08/02 11:12:19;;;;;;;5.47;2.10;;;26.50;97.10;;;;;;5033113;28;20037;-74
2022/08/02 11:14:58;;;;;;;3.90;1.98;;;26.40;97.00;;;;;;5069391;28;20045;-74
2022/08/02 11:17:24;;;;;;;7.05;2.20;;;26.30;97.30;;;;;;5026682;28;20041;-75
2022/08/02 11:20:10;;;;;;;5.05;2.67;;;26.30;97.20;;;;;;5025440;28;20484;-75
2022/08/02 11:22:37;;;;;;;3.08;2.17;;;26.20;97.20;;;;;;5025083;28;20124;-75
2022/08/02 11:25:20;;;;;;;4.35;2.20;;;26.30;97.30;;;;;;5030363;28;20088;-75
2022/08/02 11:27:47;;;;;;;4.82;2.13;;;26.30;97.90;;;;;;5055975;28;20503;-75
2022/08/02 11:30:13;;;;;;;3.40;1.90;;;26.40;97.50;;;;;;5023606;28;20410;-75
2022/08/02 11:32:40;;;;;;;3.10;1.77;;;26.40;97.40;;;;;;5065370;28;20037;-74
2022/08/02 11:35:05;;;;;;;3.83;1.98;;;26.50;97.50;;;;;;5047151;28;20071;-75
2022/08/02 11:37:35;;;;;;;4.82;2.13;;;26.70;97.80;;;;;;5039923;28;20069;-75
2022/08/02 11:40:02;;;;;;;4.70;2.35;;;27.00;97.60;;;;;;5025079;28;20045;-75
2022/08/02 11:42:32;;;;;;;5.05;2.10;;;27.00;97.90;;;;;;5034494;28;20041;-75
2022/08/02 11:44:58;;;;;;;4.35;2.30;;;27.00;98.10;;;;;;5063468;28;20395;-74
2022/08/02 11:47:23;;;;;;;4.13;1.90;;;26.90;97.50;;;;;;5024897;28;20038;-75
2022/08/02 11:49:49;;;;;;;3.90;1.80;;;26.80;97.40;;;;;;5038258;28;20041;-75
2022/08/02 11:52:14;;;;;;;3.45;2.00;;;27.10;97.50;;;;;;5060275;28;20044;-75
2022/08/02 11:54:41;;;;;;;4.93;2.20;;;27.30;97.40;;;;;;5040570;28;20079;-75
2022/08/02 11:57:08;;;;;;;3.53;2.20;;;27.30;96.90;;;;;;5016141;28;20037;-75
2022/08/02 11:59:37;;;;;;;3.28;2.03;;;27.30;96.90;;;;;;5026364;28;20056;-75
2022/08/02 12:02:05;;;;;;;5.80;2.63;;;27.30;97.10;;;;;;5031266;28;20049;-75
2022/08/02 12:04:31;;;;;;;4.22;2.10;;;27.40;97.10;;;;;;5032134;28;20050;-75
2022/08/02 12:06:58;;;;;;;3.70;2.20;;;27.50;97.30;;;;;;5030519;28;20045;-75
2022/08/02 12:09:26;;;;;;;2.83;2.05;;;27.50;97.50;;;;;;5011138;28;20038;-75
2022/08/02 12:11:52;;;;;;;3.83;2.70;;;27.50;97.40;;;;;;5025668;28;20129;-75
2022/08/02 12:14:17;;;;;;;4.55;2.80;;;27.40;97.30;;;;;;5031404;28;20414;-75
2022/08/02 12:19:28;;;;;;;6.25;3.10;;;27.10;97.80;;;;;;5063662;28;20049;-75
2022/08/02 12:22:17;;;;;;;5.07;3.08;;;26.90;98.00;;;;;;5065300;28;20436;-76
2022/08/02 12:24:45;;;;;;;5.75;3.95;;;26.80;98.20;;;;;;5023044;28;20399;-77
2022/08/02 12:27:36;;;;;;;7.82;4.18;;;26.90;98.10;;;;;;5015475;28;20046;-76
2022/08/02 12:30:02;;;;;;;6.25;3.50;;;26.90;98.20;;;;;;5029330;28;20091;-76
2022/08/02 12:32:28;;;;;;;8.15;4.20;;;26.90;98.50;;;;;;5030741;28;20038;-76
2022/08/02 12:35:08;;;;;;;6.55;4.40;;;26.80;98.40;;;;;;5034788;28;20060;-75
2022/08/02 12:37:34;;;;;;;6.80;4.28;;;26.70;98.10;;;;;;5022879;28;20495;-77
2022/08/02 12:40:24;;;;;;;6.03;4.47;;;26.70;98.70;;;;;;5022137;28;20040;-75
2022/08/02 12:42:57;;;;;;;7.45;4.57;;;26.50;99.00;;;;;;5037416;28;20033;-75
2022/08/02 12:45:23;;;;;;;5.65;3.97;;;26.30;99.10;;;;;;5042865;28;20032;-75
2022/08/02 12:47:54;;;;;;;6.75;3.72;;;26.20;99.30;;;;;;5033635;28;20110;-75
2022/08/02 12:50:29;;;;;;;8.15;3.90;;;26.00;99.30;;;;;;5033030;28;20133;-76
2022/08/02 12:53:05;;;;;;;5.13;3.53;;;25.90;99.70;;;;;;5037746;28;20038;-74
2022/08/02 12:55:31;;;;;;;6.25;3.38;;;25.90;99.90;;;;;;5050059;28;20056;-76
2022/08/02 12:58:02;;;;;;;5.03;3.50;;;25.90;99.90;;;;;;5020940;28;20069;-77